createdAt,value
2018-12-05T00:01:54.591Z,8.58
2018-12-05T00:04:22.050Z,8.28
2018-12-05T00:06:49.507Z,10.25
2018-12-05T00:09:17.066Z,9.98
2018-12-05T00:11:44.500Z,9.93
2018-12-05T00:14:12.067Z,9.78
2018-12-05T00:16:39.515Z,9.15
2018-12-05T00:19:06.958Z,10.55
2018-12-05T00:21:34.465Z,10.00
2018-12-05T00:24:01.911Z,11.18
2018-12-05T00:26:29.410Z,11.95
2018-12-05T00:28:56.869Z,10.85
2018-12-05T00:31:24.320Z,10.72
2018-12-05T00:33:51.764Z,11.70
2018-12-05T00:36:19.220Z,9.98
2018-12-05T00:38:46.654Z,11.45
2018-12-05T00:41:14.106Z,11.60
2018-12-05T00:43:41.546Z,11.00
2018-12-05T00:46:09.025Z,11.10
2018-12-05T00:48:36.464Z,10.68
2018-12-05T00:51:03.924Z,12.70
2018-12-05T00:53:31.358Z,13.85
2018-12-05T00:55:58.851Z,13.32
2018-12-05T00:58:26.291Z,14.75
2018-12-05T01:00:53.734Z,15.10
2018-12-05T01:03:21.183Z,13.90
2018-12-05T01:05:48.621Z,14.33
2018-12-05T01:08:16.067Z,15.18
2018-12-05T01:10:43.518Z,16.73
2018-12-05T01:13:10.967Z,18.95
2018-12-05T01:15:38.422Z,20.05
2018-12-05T01:18:05.855Z,18.90
2018-12-05T01:20:33.304Z,18.57
2018-12-05T01:23:00.750Z,17.12
2018-12-05T01:25:28.195Z,21.77
2018-12-05T01:27:55.647Z,20.20
2018-12-05T01:30:23.142Z,18.75
2018-12-05T01:32:50.613Z,20.17
2018-12-05T01:35:18.051Z,20.85
2018-12-05T01:37:45.615Z,21.33
2018-12-05T01:40:13.741Z,19.92
2018-12-05T01:42:41.251Z,20.75
2018-12-05T01:45:08.697Z,19.30
2018-12-05T01:47:36.151Z,21.27
2018-12-05T01:50:04.620Z,19.57
2018-12-05T01:52:32.063Z,21.10
2018-12-05T01:54:59.508Z,21.20
2018-12-05T01:57:27.651Z,18.87
2018-12-05T01:59:55.082Z,20.20
2018-12-05T02:02:22.547Z,20.80
2018-12-05T02:04:49.994Z,20.85
2018-12-05T02:07:17.434Z,21.60
2018-12-05T02:09:46.276Z,22.67
2018-12-05T02:12:13.803Z,21.00
2018-12-05T02:14:41.238Z,19.77
2018-12-05T02:17:08.699Z,19.65
2018-12-05T02:19:36.153Z,22.50
2018-12-05T02:22:03.663Z,19.95
2018-12-05T02:24:31.418Z,19.60
2018-12-05T02:26:58.926Z,22.85
2018-12-05T02:29:28.392Z,22.30
2018-12-05T02:31:55.832Z,23.57
2018-12-05T02:34:23.283Z,21.52
2018-12-05T02:36:51.195Z,22.60
2018-12-05T02:39:18.640Z,25.08
2018-12-05T02:41:46.763Z,22.75
2018-12-05T02:44:14.373Z,21.65
2018-12-05T02:46:41.923Z,22.05
2018-12-05T02:49:09.369Z,20.72
2018-12-05T02:51:37.359Z,22.52
2018-12-05T02:54:04.888Z,21.40
2018-12-05T02:56:32.331Z,20.75
2018-12-05T02:59:00.047Z,21.70
2018-12-05T03:01:27.472Z,21.65
2018-12-05T03:03:54.928Z,22.70
2018-12-05T03:06:22.384Z,23.50
2018-12-05T03:08:49.843Z,22.13
2018-12-05T03:11:17.358Z,23.67
2018-12-05T03:13:44.824Z,23.77
2018-12-05T03:16:12.269Z,23.80
2018-12-05T03:18:39.756Z,22.55
2018-12-05T03:21:07.281Z,25.02
2018-12-05T03:23:34.731Z,22.50
2018-12-05T03:26:02.168Z,21.23
2018-12-05T03:28:29.634Z,21.52
2018-12-05T03:30:57.749Z,21.90
2018-12-05T03:33:25.210Z,24.55
2018-12-05T03:35:52.734Z,22.07
2018-12-05T03:41:21.831Z,22.93
2018-12-05T03:43:49.276Z,22.73
2018-12-05T03:46:16.736Z,24.15
2018-12-05T03:48:44.191Z,22.90
2018-12-05T03:51:11.630Z,21.07
2018-12-05T03:53:39.095Z,22.75
2018-12-05T03:56:06.541Z,19.80
2018-12-05T03:58:33.978Z,21.87
2018-12-05T04:01:01.439Z,22.65
2018-12-05T04:03:28.874Z,21.33
2018-12-05T04:05:56.332Z,20.85
2018-12-05T04:08:23.767Z,20.35
2018-12-05T04:10:51.225Z,19.42
2018-12-05T04:13:18.697Z,19.57
2018-12-05T04:15:46.142Z,20.10
2018-12-05T04:18:13.579Z,21.73
2018-12-05T04:20:47.928Z,20.95
2018-12-05T04:23:18.408Z,19.98
2018-12-05T04:25:50.003Z,21.12
2018-12-05T04:28:17.431Z,20.88
2018-12-05T04:30:48.667Z,20.85
2018-12-05T04:33:16.141Z,18.92
2018-12-05T04:35:43.609Z,21.45
2018-12-05T04:38:11.039Z,20.92
2018-12-05T04:40:57.633Z,20.10
2018-12-05T04:43:27.564Z,19.02
2018-12-05T04:45:55.090Z,21.33
2018-12-05T04:48:22.569Z,20.97
2018-12-05T04:50:50.486Z,21.80
2018-12-05T04:53:17.930Z,21.45
2018-12-05T04:55:45.381Z,20.52
2018-12-05T04:58:12.828Z,24.12
2018-12-05T05:00:40.920Z,22.52
2018-12-05T05:03:08.362Z,24.23
2018-12-05T05:05:36.362Z,24.07
2018-12-05T05:08:03.877Z,23.30
2018-12-05T05:10:31.731Z,23.00
2018-12-05T05:12:59.177Z,23.40
2018-12-05T05:15:27.560Z,25.32
2018-12-05T05:17:55.011Z,23.67
2018-12-05T05:20:22.458Z,26.15
2018-12-05T05:22:50.255Z,24.35
2018-12-05T05:25:17.720Z,24.20
2018-12-05T05:27:46.084Z,23.92
2018-12-05T05:30:14.432Z,23.20
2018-12-05T05:32:41.894Z,23.55
2018-12-05T05:35:09.515Z,21.90
2018-12-05T05:37:36.970Z,24.23
2018-12-05T05:40:04.793Z,23.62
2018-12-05T05:42:32.287Z,22.98
2018-12-05T05:44:59.737Z,21.48
2018-12-05T05:47:27.184Z,19.32
2018-12-05T05:49:54.630Z,19.30
2018-12-05T05:52:22.086Z,17.40
2018-12-05T05:54:49.635Z,17.95
2018-12-05T05:57:17.106Z,17.75
2018-12-05T05:59:45.067Z,18.10
2018-12-05T06:02:12.574Z,16.48
2018-12-05T06:04:43.264Z,15.08
2018-12-05T06:07:10.719Z,14.68
2018-12-05T06:09:38.239Z,14.45
2018-12-05T06:12:05.769Z,14.75
2018-12-05T06:14:33.213Z,15.35
2018-12-05T06:17:01.517Z,13.20
2018-12-05T06:19:28.973Z,13.70
2018-12-05T06:21:56.622Z,15.53
2018-12-05T06:24:24.103Z,15.30
2018-12-05T06:26:51.542Z,16.97
2018-12-05T06:29:18.978Z,16.32
2018-12-05T06:31:46.441Z,15.13
2018-12-05T06:34:14.111Z,15.05
2018-12-05T06:36:41.670Z,14.90
2018-12-05T06:39:09.133Z,13.35
2018-12-05T06:41:36.686Z,13.32
2018-12-05T06:44:04.208Z,12.95
2018-12-05T06:46:31.663Z,14.28
2018-12-05T06:48:59.113Z,15.03
2018-12-05T06:51:26.568Z,13.60
2018-12-05T06:53:54.010Z,14.35
2018-12-05T06:56:21.457Z,12.15
2018-12-05T06:58:48.903Z,15.30
2018-12-05T07:01:16.347Z,13.32
2018-12-05T07:03:43.800Z,12.55
2018-12-05T07:06:11.679Z,13.93
2018-12-05T07:08:39.137Z,13.22
2018-12-05T07:11:07.275Z,12.90
2018-12-05T07:13:34.724Z,12.98
2018-12-05T07:16:02.170Z,15.20
2018-12-05T07:18:29.619Z,13.53
2018-12-05T07:20:57.059Z,11.80
2018-12-05T07:23:24.515Z,13.15
2018-12-05T07:25:51.951Z,12.25
2018-12-05T07:28:19.406Z,12.25
2018-12-05T07:30:46.860Z,12.70
2018-12-05T07:33:14.324Z,13.03
2018-12-05T07:35:42.294Z,12.35
2018-12-05T07:38:09.770Z,12.35
2018-12-05T07:40:37.232Z,13.45
2018-12-05T07:43:04.714Z,12.63
2018-12-05T07:45:32.153Z,13.30
2018-12-05T07:47:59.594Z,13.00
2018-12-05T07:50:27.034Z,13.35
2018-12-05T07:52:54.539Z,12.47
2018-12-05T07:55:21.974Z,12.10
2018-12-05T07:57:49.434Z,11.18
2018-12-05T08:00:16.900Z,12.20
2018-12-05T08:02:44.356Z,11.43
2018-12-05T08:05:11.831Z,12.03
2018-12-05T08:07:39.274Z,13.05
2018-12-05T08:10:06.791Z,12.53
2018-12-05T08:12:34.252Z,12.28
2018-12-05T08:15:01.779Z,11.55
2018-12-05T08:17:37.334Z,14.13
2018-12-05T08:20:05.380Z,12.20
2018-12-05T08:22:32.813Z,12.30
2018-12-05T08:25:00.271Z,11.95
2018-12-05T08:27:27.715Z,13.60
2018-12-05T08:29:55.169Z,12.00
2018-12-05T08:32:24.430Z,12.15
2018-12-05T08:34:51.907Z,11.95
2018-12-05T08:37:19.367Z,10.95
2018-12-05T08:39:47.303Z,14.00
2018-12-05T08:42:14.775Z,12.98
2018-12-05T08:44:42.558Z,12.82
2018-12-05T08:47:10.079Z,12.15
2018-12-05T08:49:40.703Z,13.00
2018-12-05T08:52:08.127Z,12.70
2018-12-05T08:54:35.588Z,11.30
2018-12-05T08:57:03.023Z,12.58
2018-12-05T08:59:31.152Z,12.50
2018-12-05T09:02:02.254Z,12.70
2018-12-05T09:04:29.684Z,13.30
2018-12-05T09:06:57.611Z,12.63
2018-12-05T09:09:25.075Z,15.08
2018-12-05T09:11:52.643Z,14.47
2018-12-05T09:14:20.095Z,12.53
2018-12-05T09:16:47.544Z,13.40
2018-12-05T09:19:14.979Z,11.53
2018-12-05T09:21:42.432Z,12.33
2018-12-05T09:24:09.880Z,12.30
2018-12-05T09:26:37.553Z,12.45
2018-12-05T09:29:04.996Z,13.30
2018-12-05T09:31:32.504Z,11.63
2018-12-05T09:33:59.938Z,12.07
2018-12-05T09:36:27.394Z,12.45
2018-12-05T09:38:54.839Z,12.98
2018-12-05T09:41:22.295Z,12.53
2018-12-05T09:43:49.731Z,12.10
2018-12-05T09:46:17.264Z,10.88
2018-12-05T09:48:44.705Z,11.48
2018-12-05T09:51:12.152Z,11.57
2018-12-05T09:53:39.595Z,11.75
2018-12-05T09:56:07.038Z,12.47
2018-12-05T09:58:34.658Z,11.70
2018-12-05T10:01:02.104Z,11.15
2018-12-05T10:03:29.572Z,11.53
2018-12-05T10:05:57.445Z,12.03
2018-12-05T10:08:24.918Z,11.50
2018-12-05T10:10:53.459Z,11.90
2018-12-05T10:13:20.920Z,13.60
2018-12-05T10:15:49.127Z,12.30
2018-12-05T10:18:17.825Z,12.43
2018-12-05T10:20:46.205Z,11.95
2018-12-05T10:23:13.655Z,12.13
2018-12-05T10:25:41.449Z,11.65
2018-12-05T10:28:08.905Z,15.60
2018-12-05T10:30:36.515Z,12.47
2018-12-05T10:33:04.023Z,12.93
2018-12-05T10:35:31.492Z,13.45
2018-12-05T10:37:58.931Z,12.90
2018-12-05T10:40:26.464Z,11.68
2018-12-05T10:42:55.797Z,11.88
2018-12-05T10:45:27.821Z,12.85
2018-12-05T10:47:55.296Z,12.60
2018-12-05T10:50:22.900Z,13.22
2018-12-05T10:52:50.340Z,14.20
2018-12-05T10:55:17.791Z,12.78
2018-12-05T10:57:45.230Z,13.70
2018-12-05T11:00:14.772Z,13.48
2018-12-05T11:02:48.154Z,13.88
2018-12-05T11:05:21.276Z,13.03
2018-12-05T11:07:54.421Z,13.28
2018-12-05T11:10:27.650Z,14.45
2018-12-05T11:13:00.599Z,12.10
2018-12-05T11:15:33.746Z,13.05
2018-12-05T11:18:06.724Z,14.05
2018-12-05T11:20:39.842Z,14.55
2018-12-05T11:23:11.131Z,15.15
2018-12-05T11:25:39.158Z,14.47
2018-12-05T11:28:06.591Z,14.00
2018-12-05T11:30:34.053Z,14.70
2018-12-05T11:33:01.893Z,14.70
2018-12-05T11:35:29.381Z,15.08
2018-12-05T11:37:58.090Z,13.10
2018-12-05T11:40:25.896Z,14.20
2018-12-05T11:42:53.614Z,13.83
2018-12-05T11:45:21.860Z,14.10
2018-12-05T11:47:49.296Z,14.28
2018-12-05T11:50:16.743Z,13.78
2018-12-05T11:52:44.199Z,14.75
2018-12-05T11:55:11.661Z,13.95
2018-12-05T11:57:39.104Z,13.78
2018-12-05T12:00:07.491Z,14.60
2018-12-05T12:02:34.932Z,14.63
2018-12-05T12:05:02.387Z,13.40
2018-12-05T12:07:29.846Z,13.83
2018-12-05T12:09:57.290Z,12.95
2018-12-05T12:12:30.455Z,12.90
2018-12-05T12:14:57.907Z,13.43
2018-12-05T12:17:25.424Z,14.38
2018-12-05T12:19:52.877Z,14.30
2018-12-05T12:22:20.327Z,14.75
2018-12-05T12:24:47.780Z,14.80
2018-12-05T12:27:15.341Z,14.87
2018-12-05T12:29:43.370Z,13.38
2018-12-05T12:32:10.859Z,15.40
2018-12-05T12:34:38.465Z,13.13
2018-12-05T12:37:05.947Z,12.95
2018-12-05T12:39:33.495Z,13.73
2018-12-05T12:42:01.111Z,12.33
2018-12-05T12:44:28.599Z,11.30
2018-12-05T12:46:58.465Z,11.60
2018-12-05T12:49:25.958Z,11.63
2018-12-05T12:51:53.468Z,12.43
2018-12-05T12:54:21.676Z,11.30
2018-12-05T12:56:49.218Z,12.10
2018-12-05T12:59:16.731Z,11.17
2018-12-05T13:01:45.093Z,10.70
2018-12-05T13:04:12.620Z,11.97
2018-12-05T13:06:40.176Z,12.50
2018-12-05T13:09:07.691Z,15.53
2018-12-05T13:11:35.146Z,12.60
2018-12-05T13:14:02.600Z,12.43
2018-12-05T13:16:30.055Z,14.37
2018-12-05T13:18:57.495Z,14.03
2018-12-05T13:21:25.013Z,14.30
2018-12-05T13:23:52.467Z,12.23
2018-12-05T13:26:19.988Z,14.03
2018-12-05T13:28:47.433Z,11.25
2018-12-05T13:31:14.950Z,12.43
2018-12-05T13:33:43.396Z,12.17
2018-12-05T13:36:10.917Z,12.10
2018-12-05T13:38:38.387Z,13.00
2018-12-05T13:41:05.863Z,12.47
2018-12-05T13:43:34.574Z,12.10
2018-12-05T13:46:02.302Z,13.20
2018-12-05T13:48:30.497Z,13.57
2018-12-05T13:50:58.523Z,12.40
2018-12-05T13:53:26.064Z,13.03
2018-12-05T13:55:53.544Z,12.07
2018-12-05T13:58:21.135Z,13.75
2018-12-05T14:00:48.595Z,12.60
2018-12-05T14:03:16.096Z,13.62
2018-12-05T14:05:43.557Z,14.25
2018-12-05T14:08:11.216Z,13.00
2018-12-05T14:10:39.659Z,13.48
2018-12-05T14:13:07.099Z,11.65
2018-12-05T14:15:34.934Z,13.18
2018-12-05T14:18:03.376Z,12.10
2018-12-05T14:20:31.136Z,13.08
2018-12-05T14:22:58.584Z,14.07
2018-12-05T14:25:26.060Z,11.97
2018-12-05T14:27:53.546Z,14.25
2018-12-05T14:30:21.022Z,12.65
2018-12-05T14:32:48.523Z,13.05
2018-12-05T14:35:15.988Z,13.72
2018-12-05T14:37:43.615Z,13.93
2018-12-05T14:40:11.099Z,14.35
2018-12-05T14:42:38.569Z,13.60
2018-12-05T14:45:06.142Z,14.15
2018-12-05T14:47:33.586Z,15.78
2018-12-05T14:50:02.188Z,14.45
2018-12-05T14:52:30.012Z,14.63
2018-12-05T14:54:58.818Z,13.32
2018-12-05T14:57:26.288Z,14.30
2018-12-05T14:59:53.826Z,15.48
2018-12-05T15:02:21.492Z,14.85
2018-12-05T15:04:48.974Z,14.35
2018-12-05T15:07:16.505Z,15.83
2018-12-05T15:09:43.978Z,16.50
2018-12-05T15:12:11.420Z,16.05
2018-12-05T15:14:38.871Z,17.55
2018-12-05T15:17:06.539Z,16.35
2018-12-05T15:19:34.144Z,16.37
2018-12-05T15:22:01.600Z,16.05
2018-12-05T15:24:29.035Z,15.48
2018-12-05T15:26:56.485Z,16.05
2018-12-05T15:29:25.678Z,15.45
2018-12-05T15:31:54.679Z,15.68
2018-12-05T15:34:22.144Z,15.95
2018-12-05T15:36:49.892Z,15.28
2018-12-05T15:39:17.338Z,16.27
2018-12-05T15:41:44.816Z,16.07
2018-12-05T15:44:12.344Z,16.02
2018-12-05T15:46:39.783Z,15.45
2018-12-05T15:49:07.305Z,15.32
2018-12-05T15:51:34.744Z,16.05
2018-12-05T15:54:04.893Z,16.70
2018-12-05T15:56:32.423Z,16.15
2018-12-05T15:58:59.866Z,16.15
2018-12-05T16:01:31.012Z,17.00
2018-12-05T16:03:58.528Z,15.78
2018-12-05T16:06:26.042Z,15.90
2018-12-05T16:08:53.765Z,15.25
2018-12-05T16:11:21.207Z,15.58
2018-12-05T16:13:48.660Z,16.07
2018-12-05T16:16:18.883Z,15.23
2018-12-05T16:18:46.348Z,14.90
2018-12-05T16:21:13.905Z,14.75
2018-12-05T16:23:41.354Z,15.72
2018-12-05T16:26:10.716Z,14.28
2018-12-05T16:28:40.267Z,13.83
2018-12-05T16:31:07.728Z,14.75
2018-12-05T16:33:36.477Z,15.70
2018-12-05T16:36:11.133Z,14.75
2018-12-05T16:38:35.990Z,14.43
2018-12-05T16:41:03.589Z,15.58
2018-12-05T16:43:32.386Z,14.95
2018-12-05T16:45:59.840Z,15.95
2018-12-05T16:48:27.279Z,16.05
2018-12-05T16:50:54.823Z,14.75
2018-12-05T16:53:22.255Z,15.98
2018-12-05T16:55:49.714Z,17.30
2018-12-05T16:58:17.190Z,15.40
2018-12-05T17:00:44.637Z,17.35
2018-12-05T17:03:12.864Z,15.78
2018-12-05T17:05:40.353Z,17.65
2018-12-05T17:08:10.455Z,18.05
2018-12-05T17:10:38.144Z,15.18
2018-12-05T17:13:06.528Z,16.80
2018-12-05T17:15:33.978Z,16.82
2018-12-05T17:18:01.501Z,16.42
2018-12-05T17:20:29.792Z,17.67
2018-12-05T17:22:57.232Z,15.85
2018-12-05T17:25:24.670Z,15.65
2018-12-05T17:27:52.361Z,15.00
2018-12-05T17:30:19.994Z,15.35
2018-12-05T17:32:47.444Z,14.93
2018-12-05T17:35:14.882Z,17.62
2018-12-05T17:37:42.327Z,16.20
2018-12-05T17:40:09.783Z,15.50
2018-12-05T17:42:37.224Z,15.88
2018-12-05T17:45:04.821Z,15.48
2018-12-05T17:47:32.254Z,16.12
2018-12-05T17:49:59.715Z,15.20
2018-12-05T17:52:27.163Z,17.92
2018-12-05T17:54:54.624Z,14.50
2018-12-05T17:57:22.065Z,13.55
2018-12-05T17:59:49.617Z,14.38
2018-12-05T18:02:17.069Z,15.30
2018-12-05T18:04:44.527Z,14.15
2018-12-05T18:07:11.976Z,14.60
2018-12-05T18:09:39.415Z,12.90
2018-12-05T18:12:06.878Z,13.80
2018-12-05T18:14:34.322Z,15.95
2018-12-05T18:17:01.779Z,13.85
2018-12-05T18:19:29.276Z,13.60
2018-12-05T18:21:56.736Z,15.65
2018-12-05T18:24:24.171Z,14.98
2018-12-05T18:26:51.931Z,14.73
2018-12-05T18:29:19.366Z,11.63
2018-12-05T18:31:46.916Z,13.88
2018-12-05T18:34:15.011Z,14.90
2018-12-05T18:36:42.466Z,13.38
2018-12-05T18:39:09.979Z,13.95
2018-12-05T18:41:37.842Z,14.83
2018-12-05T18:44:05.308Z,15.58
2018-12-05T18:46:32.791Z,13.13
2018-12-05T18:49:00.253Z,13.45
2018-12-05T18:51:27.794Z,13.80
2018-12-05T18:53:55.247Z,15.32
2018-12-05T18:56:22.702Z,14.00
2018-12-05T18:58:51.088Z,14.03
2018-12-05T19:01:21.188Z,17.07
2018-12-05T19:03:50.529Z,13.88
2018-12-05T19:06:18.589Z,14.58
2018-12-05T19:08:46.531Z,14.60
2018-12-05T19:11:14.848Z,14.40
2018-12-05T19:13:49.246Z,14.30
2018-12-05T19:16:17.909Z,12.93
2018-12-05T19:18:45.386Z,12.93
2018-12-05T19:21:12.827Z,14.00
2018-12-05T19:23:40.286Z,12.50
2018-12-05T19:26:07.737Z,13.83
2018-12-05T19:28:35.200Z,13.13
2018-12-05T19:31:02.643Z,13.40
2018-12-05T19:33:30.183Z,14.95
2018-12-05T19:35:57.626Z,12.70
2018-12-05T19:38:25.077Z,12.45
2018-12-05T19:40:52.530Z,13.35
2018-12-05T19:43:20.072Z,12.85
2018-12-05T19:45:47.544Z,11.70
2018-12-05T19:48:15.013Z,12.35
2018-12-05T19:50:42.474Z,14.68
2018-12-05T19:53:09.987Z,12.37
2018-12-05T19:55:37.449Z,14.43
2018-12-05T19:58:04.930Z,15.03
2018-12-05T20:00:32.431Z,14.40
2018-12-05T20:02:59.871Z,14.13
2018-12-05T20:05:27.583Z,13.75
2018-12-05T20:07:55.054Z,13.85
2018-12-05T20:10:23.778Z,15.08
2018-12-05T20:12:51.607Z,14.07
2018-12-05T20:15:20.139Z,14.47
2018-12-05T20:17:47.595Z,14.13
2018-12-05T20:20:15.041Z,13.98
2018-12-05T20:22:42.504Z,13.18
2018-12-05T20:25:09.950Z,12.98
2018-12-05T20:27:37.415Z,13.65
2018-12-05T20:30:05.685Z,12.60
2018-12-05T20:32:33.163Z,13.68
2018-12-05T20:35:00.743Z,11.75
2018-12-05T20:37:28.411Z,12.55
2018-12-05T20:39:56.004Z,13.10
2018-12-05T20:42:24.788Z,11.57
2018-12-05T20:44:52.353Z,14.45
2018-12-05T20:47:19.780Z,13.48
2018-12-05T20:49:47.254Z,13.05
2018-12-05T20:52:14.702Z,13.22
2018-12-05T20:54:42.228Z,13.53
2018-12-05T20:57:09.669Z,12.58
2018-12-05T20:59:37.127Z,12.18
2018-12-05T21:02:04.765Z,13.38
2018-12-05T21:07:07.594Z,11.80
2018-12-05T21:09:35.914Z,13.40
2018-12-05T21:12:04.189Z,12.90
2018-12-05T21:14:31.659Z,13.43
2018-12-05T21:16:59.118Z,13.10
2018-12-05T21:19:26.582Z,13.85
2018-12-05T21:21:54.230Z,14.63
2018-12-05T21:24:22.875Z,11.50
2018-12-05T21:26:50.331Z,12.93
2018-12-05T21:29:18.988Z,13.40
2018-12-05T21:32:36.086Z,14.90
2018-12-05T21:35:04.522Z,13.83
2018-12-05T21:37:31.983Z,13.03
2018-12-05T21:39:59.426Z,14.43
2018-12-05T21:42:26.940Z,13.18
2018-12-05T21:44:54.392Z,13.48
2018-12-05T21:47:21.913Z,12.93
2018-12-05T21:49:49.340Z,12.98
2018-12-05T21:52:16.792Z,13.03
2018-12-05T21:54:44.227Z,12.90
2018-12-05T21:57:11.691Z,14.05
2018-12-05T21:59:39.127Z,14.23
2018-12-05T22:02:06.579Z,13.68
2018-12-05T22:04:34.034Z,12.58
2018-12-05T22:07:01.481Z,14.40
2018-12-05T22:09:28.931Z,13.88
2018-12-05T22:12:01.050Z,15.58
2018-12-05T22:14:29.004Z,13.48
2018-12-05T22:16:56.436Z,13.32
2018-12-05T22:19:23.895Z,12.80
2018-12-05T22:21:51.340Z,13.88
2018-12-05T22:24:18.799Z,14.35
2018-12-05T22:26:46.372Z,15.72
2018-12-05T22:29:13.897Z,15.40
2018-12-05T22:31:41.415Z,15.32
2018-12-05T22:34:08.861Z,13.30
2018-12-05T22:36:36.340Z,15.98
2018-12-05T22:39:06.109Z,14.03
2018-12-05T22:41:34.111Z,15.25
2018-12-05T22:44:01.551Z,14.35
2018-12-05T22:46:29.000Z,14.23
2018-12-05T22:48:56.443Z,13.90
2018-12-05T22:51:23.899Z,15.05
2018-12-05T22:53:51.417Z,14.60
2018-12-05T22:56:18.877Z,15.35
2018-12-05T22:58:46.420Z,15.85
2018-12-05T23:01:13.955Z,14.70
2018-12-05T23:03:41.396Z,15.63
2018-12-05T23:06:08.855Z,14.20
2018-12-05T23:08:36.295Z,14.70
2018-12-05T23:11:03.807Z,16.12
2018-12-05T23:13:31.260Z,15.20
2018-12-05T23:15:58.758Z,16.15
2018-12-05T23:18:26.205Z,13.93
2018-12-05T23:20:53.655Z,14.30
2018-12-05T23:23:21.113Z,15.32
2018-12-05T23:25:48.564Z,15.88
2018-12-05T23:28:16.014Z,14.83
2018-12-05T23:30:43.515Z,17.35
2018-12-05T23:33:10.971Z,15.50
2018-12-05T23:35:38.407Z,15.32
2018-12-05T23:38:05.874Z,14.65
2018-12-05T23:40:33.327Z,16.90
2018-12-05T23:43:00.858Z,14.80
2018-12-05T23:45:28.359Z,14.68
2018-12-05T23:47:56.446Z,16.12
2018-12-05T23:50:23.888Z,13.98
2018-12-05T23:52:51.331Z,15.28
2018-12-05T23:55:19.212Z,14.83
2018-12-05T23:57:46.657Z,16.12
